createdAt,value
2023-05-14T00:00:58.764Z,9.83
2023-05-14T00:01:58.936Z,9.80
2023-05-14T00:02:59.045Z,9.81
2023-05-14T00:03:58.981Z,9.79
2023-05-14T00:04:58.949Z,9.76
2023-05-14T00:05:58.944Z,9.71
2023-05-14T00:06:59.063Z,9.66
2023-05-14T00:07:59.105Z,9.63
2023-05-14T00:08:59.039Z,9.61
2023-05-14T00:09:59.083Z,9.62
2023-05-14T00:10:59.124Z,9.58
2023-05-14T00:11:59.179Z,9.58
2023-05-14T00:12:59.208Z,9.60
2023-05-14T00:13:59.160Z,9.57
2023-05-14T00:14:59.235Z,9.56
2023-05-14T00:15:59.302Z,9.52
2023-05-14T00:16:59.276Z,9.47
2023-05-14T00:17:59.381Z,9.44
2023-05-14T00:18:59.527Z,9.44
2023-05-14T00:19:59.400Z,9.46
2023-05-14T00:20:59.453Z,9.48
2023-05-14T00:21:59.487Z,9.51
2023-05-14T00:22:59.518Z,9.54
2023-05-14T00:23:59.592Z,9.55
2023-05-14T00:24:59.598Z,9.59
2023-05-14T00:25:59.613Z,9.60
2023-05-14T00:26:59.678Z,9.59
2023-05-14T00:27:59.712Z,9.61
2023-05-14T00:28:59.741Z,9.64
2023-05-14T00:29:59.774Z,9.66
2023-05-14T00:30:59.757Z,9.66
2023-05-14T00:31:59.772Z,9.65
2023-05-14T00:32:59.826Z,9.67
2023-05-14T00:33:59.904Z,9.70
2023-05-14T00:34:59.919Z,9.68
2023-05-14T00:35:59.901Z,9.70
2023-05-14T00:40:35.210Z,9.92
2023-05-14T00:43:54.802Z,9.56
2023-05-14T00:47:34.912Z,9.70
2023-05-14T00:48:34.822Z,9.69
2023-05-14T00:49:34.808Z,9.71
2023-05-14T00:50:34.797Z,9.69
2023-05-14T00:51:34.793Z,9.70
2023-05-14T00:52:35.323Z,9.73
2023-05-14T00:53:34.801Z,9.77
2023-05-14T00:54:34.783Z,9.81
2023-05-14T00:55:34.802Z,9.85
2023-05-14T00:56:34.878Z,9.83
2023-05-14T00:57:35.130Z,9.82
2023-05-14T00:58:34.760Z,9.85
2023-05-14T00:59:34.745Z,9.83
2023-05-14T01:00:34.831Z,9.83
2023-05-14T01:01:34.934Z,9.83
2023-05-14T01:02:34.796Z,9.86
2023-05-14T01:03:34.758Z,9.86
2023-05-14T01:04:34.762Z,9.86
2023-05-14T01:05:34.706Z,9.85
2023-05-14T01:06:34.734Z,9.83
2023-05-14T01:07:34.687Z,9.78
2023-05-14T01:08:34.709Z,9.77
2023-05-14T01:09:34.692Z,9.81
2023-05-14T01:10:34.660Z,9.84
2023-05-14T01:11:34.654Z,9.88
2023-05-14T01:12:34.679Z,9.86
2023-05-14T01:13:34.628Z,9.87
2023-05-14T01:14:34.643Z,9.85
2023-05-14T01:15:34.644Z,9.86
2023-05-14T01:16:34.679Z,9.89
2023-05-14T01:17:34.681Z,9.90
2023-05-14T01:18:34.653Z,9.91
2023-05-14T01:19:34.594Z,9.92
2023-05-14T01:20:34.639Z,9.91
2023-05-14T01:21:34.831Z,9.90
2023-05-14T01:22:34.581Z,9.93
2023-05-14T01:23:34.654Z,9.94
2023-05-14T01:24:34.593Z,9.91
2023-05-14T01:25:34.592Z,9.89
2023-05-14T01:26:34.616Z,9.88
2023-05-14T01:27:34.639Z,9.88
2023-05-14T01:28:34.687Z,9.88
2023-05-14T01:29:34.766Z,9.88
2023-05-14T01:30:34.735Z,9.89
2023-05-14T01:31:34.816Z,9.91
2023-05-14T01:32:34.799Z,9.92
2023-05-14T01:33:34.865Z,9.89
2023-05-14T01:34:34.873Z,9.92
2023-05-14T01:35:34.896Z,9.91
2023-05-14T01:36:34.874Z,9.88
2023-05-14T01:37:34.886Z,9.90
2023-05-14T01:38:34.925Z,9.96
2023-05-14T01:39:34.939Z,10.02
2023-05-14T01:40:34.919Z,10.04
2023-05-14T01:41:34.913Z,10.05
2023-05-14T01:42:34.923Z,10.07
2023-05-14T01:43:35.056Z,10.02
2023-05-14T01:44:35.004Z,10.01
2023-05-14T01:45:35.067Z,10.01
2023-05-14T01:46:35.108Z,9.99
2023-05-14T01:47:35.112Z,9.96
2023-05-14T01:48:35.162Z,9.93
2023-05-14T01:49:35.231Z,9.93
2023-05-14T01:50:35.266Z,9.91
2023-05-14T01:51:35.394Z,9.89
2023-05-14T01:52:35.324Z,9.91
2023-05-14T01:53:35.412Z,9.88
2023-05-14T01:54:35.405Z,9.81
2023-05-14T01:55:35.453Z,9.77
2023-05-14T01:56:35.754Z,9.76
2023-05-14T01:57:35.587Z,9.72
2023-05-14T01:58:35.579Z,9.72
2023-05-14T01:59:35.614Z,9.71
2023-05-14T02:00:35.649Z,9.70
2023-05-14T02:03:20.983Z,9.50
2023-05-14T02:04:21.010Z,9.66
2023-05-14T02:05:19.913Z,9.67
2023-05-14T02:09:40.045Z,9.49
2023-05-14T02:11:57.273Z,9.34
2023-05-14T02:15:36.177Z,9.49
2023-05-14T02:22:47.944Z,9.21
2023-05-14T02:23:47.674Z,9.42
2023-05-14T02:26:07.700Z,9.43
2023-05-14T02:27:08.343Z,9.43
2023-05-14T02:29:59.524Z,9.20
2023-05-14T02:30:59.038Z,9.38
2023-05-14T02:31:59.067Z,9.40
2023-05-14T02:32:59.078Z,9.41
2023-05-14T02:33:59.013Z,9.43
2023-05-14T02:34:58.990Z,9.47
2023-05-14T02:35:58.969Z,9.51
2023-05-14T02:36:59.007Z,9.53
2023-05-14T02:37:58.974Z,9.53
2023-05-14T02:38:58.946Z,9.54
2023-05-14T02:39:58.888Z,9.54
2023-05-14T02:40:58.885Z,9.54
2023-05-14T02:41:58.910Z,9.55
2023-05-14T02:42:58.905Z,9.58
2023-05-14T02:43:58.873Z,9.65
2023-05-14T02:44:58.918Z,9.63
2023-05-14T02:45:58.838Z,9.62
2023-05-14T02:46:58.929Z,9.61
2023-05-14T02:47:58.871Z,9.59
2023-05-14T02:48:58.947Z,9.63
2023-05-14T02:49:59.143Z,9.67
2023-05-14T02:50:58.971Z,9.69
2023-05-14T02:51:59.593Z,9.71
2023-05-14T02:52:59.052Z,9.71
2023-05-14T02:53:59.088Z,9.75
2023-05-14T02:54:59.137Z,9.72
2023-05-14T02:57:18.925Z,9.67
2023-05-14T02:58:19.417Z,9.73
2023-05-14T03:00:45.581Z,9.60
2023-05-14T03:01:45.189Z,9.79
2023-05-14T03:02:44.899Z,9.78
2023-05-14T03:03:44.861Z,9.75
2023-05-14T03:06:31.986Z,9.52
2023-05-14T03:07:31.513Z,9.70
2023-05-14T03:09:51.327Z,9.69
2023-05-14T03:10:51.327Z,9.71
2023-05-14T03:11:51.470Z,9.71
2023-05-14T03:12:51.170Z,9.73
2023-05-14T03:13:51.171Z,9.73
2023-05-14T03:14:51.156Z,9.74
2023-05-14T03:15:51.131Z,9.77
2023-05-14T03:16:51.179Z,9.78
2023-05-14T03:17:51.210Z,9.82
2023-05-14T03:18:51.174Z,9.83
2023-05-14T03:19:51.079Z,9.87
2023-05-14T03:20:51.073Z,9.91
2023-05-14T03:21:51.088Z,9.90
2023-05-14T03:22:51.092Z,9.91
2023-05-14T03:23:51.114Z,9.90
2023-05-14T03:24:51.075Z,9.86
2023-05-14T03:25:51.101Z,9.84
2023-05-14T03:26:51.100Z,9.84
2023-05-14T03:27:51.025Z,9.82
2023-05-14T03:28:51.070Z,9.83
2023-05-14T03:29:51.118Z,9.79
2023-05-14T03:30:51.057Z,9.72
2023-05-14T03:31:51.025Z,9.67
2023-05-14T03:32:51.088Z,9.64
2023-05-14T03:33:51.036Z,9.61
2023-05-14T03:34:51.005Z,9.60
2023-05-14T03:35:50.967Z,9.61
2023-05-14T03:36:51.060Z,9.60
2023-05-14T03:37:50.983Z,9.59
2023-05-14T03:38:50.995Z,9.59
2023-05-14T03:39:51.805Z,9.59
2023-05-14T03:40:50.986Z,9.55
2023-05-14T03:41:51.002Z,9.47
2023-05-14T03:42:50.935Z,9.43
2023-05-14T03:43:51.004Z,9.43
2023-05-14T03:44:50.954Z,9.41
2023-05-14T03:45:51.030Z,9.37
2023-05-14T03:46:50.931Z,9.37
2023-05-14T03:47:51.007Z,9.35
2023-05-14T03:48:50.937Z,9.34
2023-05-14T03:49:50.976Z,9.30
2023-05-14T03:50:50.978Z,9.31
2023-05-14T03:51:51.404Z,9.28
2023-05-14T03:52:51.067Z,9.26
2023-05-14T03:53:51.089Z,9.25
2023-05-14T03:54:51.180Z,9.23
2023-05-14T03:55:51.209Z,9.24
2023-05-14T03:56:51.227Z,9.21
2023-05-14T03:57:51.376Z,9.22
2023-05-14T03:58:51.327Z,9.24
2023-05-14T03:59:51.372Z,9.29
2023-05-14T04:00:51.452Z,9.29
2023-05-14T04:01:51.443Z,9.30
2023-05-14T04:02:51.502Z,9.29
2023-05-14T04:03:51.651Z,9.31
2023-05-14T04:04:51.612Z,9.32
2023-05-14T04:05:51.485Z,9.34
2023-05-14T04:06:51.585Z,9.36
2023-05-14T04:07:51.594Z,9.40
2023-05-14T04:08:51.580Z,9.39
2023-05-14T04:09:51.597Z,9.40
2023-05-14T04:10:51.628Z,9.39
2023-05-14T04:11:51.699Z,9.38
2023-05-14T04:12:51.808Z,9.40
2023-05-14T04:13:51.724Z,9.41
2023-05-14T04:14:51.728Z,9.40
2023-05-14T04:15:51.818Z,9.38
2023-05-14T04:16:51.819Z,9.39
2023-05-14T04:17:51.875Z,9.40
2023-05-14T04:18:51.933Z,9.39
2023-05-14T04:19:51.870Z,9.36
2023-05-14T04:20:51.974Z,9.32
2023-05-14T04:21:51.963Z,9.30
2023-05-14T04:22:52.024Z,9.30
2023-05-14T04:23:51.987Z,9.29
2023-05-14T04:24:52.009Z,9.28
2023-05-14T04:25:52.047Z,9.32
2023-05-14T04:26:52.157Z,9.38
2023-05-14T04:27:52.319Z,9.37
2023-05-14T04:28:52.127Z,9.37
2023-05-14T04:29:52.181Z,9.38
2023-05-14T04:30:52.192Z,9.40
2023-05-14T04:31:52.304Z,9.44
2023-05-14T04:32:54.844Z,9.45
2023-05-14T04:33:52.404Z,9.49
2023-05-14T04:34:52.468Z,9.48
2023-05-14T04:35:52.577Z,9.45
2023-05-14T04:36:52.515Z,9.45
2023-05-14T04:37:52.626Z,9.44
2023-05-14T04:38:52.654Z,9.44
2023-05-14T04:39:52.699Z,9.41
2023-05-14T04:40:52.744Z,9.44
2023-05-14T04:41:52.756Z,9.44
2023-05-14T04:42:52.833Z,9.45
2023-05-14T04:43:52.881Z,9.46
2023-05-14T04:44:52.955Z,9.45
2023-05-14T04:45:53.084Z,9.47
2023-05-14T04:46:52.959Z,9.48
2023-05-14T04:47:53.062Z,9.50
2023-05-14T04:50:13.023Z,9.48
2023-05-14T04:52:56.922Z,9.29
2023-05-14T04:55:16.850Z,9.50
2023-05-14T04:59:22.968Z,9.40
2023-05-14T05:01:42.779Z,9.61
2023-05-14T05:05:09.039Z,9.50
2023-05-14T05:07:53.202Z,9.72
2023-05-14T05:10:13.832Z,9.56
2023-05-14T05:12:33.275Z,9.71
2023-05-14T05:13:33.617Z,9.74
2023-05-14T05:18:12.364Z,9.50
2023-05-14T05:19:12.600Z,9.70
2023-05-14T05:20:13.141Z,9.78
2023-05-14T05:21:12.498Z,9.84
2023-05-14T05:25:19.686Z,9.80
2023-05-14T05:26:19.641Z,9.90
2023-05-14T05:28:39.353Z,9.95
2023-05-14T05:29:38.954Z,10.01
2023-05-14T05:35:53.860Z,10.29
2023-05-14T05:39:03.838Z,10.07
2023-05-14T05:41:13.590Z,10.22
2023-05-14T05:42:13.553Z,10.27
2023-05-14T05:46:20.952Z,10.34
2023-05-14T05:47:21.189Z,10.49
2023-05-14T05:50:12.739Z,10.37
2023-05-14T05:52:32.409Z,10.64
2023-05-14T05:53:32.513Z,10.68
2023-05-14T05:55:51.986Z,10.77
2023-05-14T05:56:51.958Z,10.84
2023-05-14T05:57:52.005Z,10.86
2023-05-14T05:58:52.045Z,10.85
2023-05-14T06:01:11.613Z,10.95
2023-05-14T06:02:11.580Z,11.01
2023-05-14T06:03:11.842Z,11.11
2023-05-14T06:04:12.232Z,11.11
2023-05-14T06:05:11.614Z,11.07
2023-05-14T06:06:11.510Z,11.03
2023-05-14T06:07:11.535Z,11.04
2023-05-14T06:08:11.488Z,11.11
2023-05-14T06:09:11.545Z,11.21
2023-05-14T06:10:11.461Z,11.28
2023-05-14T06:11:11.501Z,11.34
2023-05-14T06:12:11.486Z,11.40
2023-05-14T06:13:11.490Z,11.48
2023-05-14T06:14:11.498Z,11.55
2023-05-14T06:15:11.476Z,11.65
2023-05-14T06:16:11.528Z,11.69
2023-05-14T06:17:11.395Z,11.68
2023-05-14T06:18:12.217Z,11.74
2023-05-14T06:19:11.606Z,11.82
2023-05-14T06:20:11.513Z,11.87
2023-05-14T06:21:11.437Z,11.88
2023-05-14T06:22:11.432Z,11.87
2023-05-14T06:25:05.419Z,11.85
2023-05-14T06:26:06.191Z,12.08
2023-05-14T06:32:21.893Z,11.93
2023-05-14T06:33:20.915Z,12.14
2023-05-14T06:34:20.903Z,12.21
2023-05-14T06:35:21.077Z,12.19
2023-05-14T06:36:20.977Z,12.22
2023-05-14T06:38:41.021Z,12.39
2023-05-14T06:39:40.807Z,12.48
2023-05-14T06:40:40.837Z,12.53
2023-05-14T06:43:38.612Z,12.31
2023-05-14T06:44:38.590Z,12.50
2023-05-14T06:46:57.781Z,12.62
2023-05-14T06:47:57.859Z,12.56
2023-05-14T06:51:36.790Z,12.82
2023-05-14T06:59:15.042Z,12.75
2023-05-14T07:00:14.957Z,12.77
2023-05-14T07:02:34.566Z,12.67
2023-05-14T07:03:34.616Z,12.70
2023-05-14T07:06:44.600Z,12.48
2023-05-14T07:07:34.449Z,12.72
2023-05-14T07:08:34.462Z,12.83
2023-05-14T07:09:34.687Z,12.80
2023-05-14T07:12:23.425Z,12.46
2023-05-14T07:13:23.034Z,12.69
2023-05-14T07:14:24.899Z,12.67
2023-05-14T07:17:11.667Z,12.62
2023-05-14T07:18:11.745Z,12.87
2023-05-14T07:19:12.450Z,12.91
2023-05-14T07:20:11.504Z,12.87
2023-05-14T07:21:11.509Z,12.91
2023-05-14T07:22:11.534Z,12.93
2023-05-14T07:23:11.528Z,13.01
2023-05-14T07:24:11.537Z,13.07
2023-05-14T07:25:11.745Z,13.13
2023-05-14T07:26:11.529Z,13.17
2023-05-14T07:27:11.457Z,13.21
2023-05-14T07:28:11.476Z,13.25
2023-05-14T07:29:11.467Z,13.28
2023-05-14T07:30:11.466Z,13.34
2023-05-14T07:33:03.062Z,13.10
2023-05-14T07:34:03.316Z,13.15
2023-05-14T07:35:03.738Z,13.16
2023-05-14T07:36:02.827Z,13.19
2023-05-14T07:37:03.219Z,13.22
2023-05-14T07:38:03.601Z,13.28
2023-05-14T07:39:02.869Z,13.37
2023-05-14T07:40:02.860Z,13.51
2023-05-14T07:41:03.279Z,13.64
2023-05-14T07:42:03.979Z,13.70
2023-05-14T07:43:03.179Z,13.68
2023-05-14T07:44:06.776Z,13.66
2023-05-14T07:45:03.094Z,13.77
2023-05-14T07:46:03.942Z,13.77
2023-05-14T07:47:03.022Z,13.79
2023-05-14T07:51:34.985Z,14.04
2023-05-14T07:52:34.984Z,14.19
2023-05-14T07:55:26.918Z,14.50
2023-05-14T07:56:26.695Z,14.86
2023-05-14T08:00:05.525Z,15.10
2023-05-14T08:01:05.340Z,15.29
2023-05-14T08:03:25.024Z,15.32
2023-05-14T08:04:24.826Z,15.50
2023-05-14T08:05:24.719Z,15.67
2023-05-14T08:06:24.752Z,15.81
2023-05-14T08:07:24.875Z,15.93
2023-05-14T08:08:25.044Z,16.09
2023-05-14T08:09:24.745Z,16.28
2023-05-14T08:10:24.957Z,16.47
2023-05-14T08:11:24.689Z,16.66
2023-05-14T08:12:24.668Z,16.81
2023-05-14T08:13:24.706Z,16.89
2023-05-14T08:14:24.683Z,16.83
2023-05-14T08:15:27.616Z,16.94
2023-05-14T08:16:24.700Z,17.14
2023-05-14T08:17:24.651Z,17.24
2023-05-14T08:18:24.753Z,17.52
2023-05-14T08:19:24.619Z,17.82
2023-05-14T08:20:24.922Z,18.06
2023-05-14T08:21:24.640Z,18.22
2023-05-14T08:22:24.637Z,18.33
2023-05-14T08:23:24.638Z,18.14
2023-05-14T08:24:24.590Z,17.91
2023-05-14T08:25:24.565Z,17.64
2023-05-14T08:26:24.579Z,17.56
2023-05-14T08:27:24.600Z,17.79
2023-05-14T08:28:24.605Z,18.16
2023-05-14T08:29:24.589Z,18.43
2023-05-14T08:30:24.803Z,18.79
2023-05-14T08:31:24.691Z,19.12
2023-05-14T08:32:24.532Z,19.29
2023-05-14T08:33:24.997Z,19.47
2023-05-14T08:34:24.530Z,19.45
2023-05-14T08:35:24.529Z,19.66
2023-05-14T08:36:24.529Z,19.64
2023-05-14T08:37:24.578Z,19.85
2023-05-14T08:38:24.572Z,19.77
2023-05-14T08:39:24.541Z,19.83
2023-05-14T08:40:24.734Z,20.68
2023-05-14T08:41:24.492Z,21.42
2023-05-14T08:42:24.464Z,21.64
2023-05-14T08:43:24.749Z,22.26
2023-05-14T08:44:24.483Z,22.37
2023-05-14T08:45:24.500Z,22.46
2023-05-14T08:46:24.426Z,22.43
2023-05-14T08:47:24.469Z,23.25
2023-05-14T08:48:24.514Z,23.99
2023-05-14T08:49:24.430Z,24.24
2023-05-14T08:50:24.589Z,24.14
2023-05-14T08:51:24.428Z,23.91
2023-05-14T08:52:24.431Z,24.06
2023-05-14T08:53:24.458Z,24.73
2023-05-14T08:54:24.406Z,24.95
2023-05-14T08:55:24.455Z,24.88
2023-05-14T08:56:24.482Z,24.83
2023-05-14T08:57:24.391Z,24.33
2023-05-14T08:58:24.383Z,24.46
2023-05-14T08:59:24.385Z,25.32
2023-05-14T09:00:24.690Z,24.84
2023-05-14T09:01:24.420Z,25.08
2023-05-14T09:02:24.460Z,24.67
2023-05-14T09:07:14.260Z,23.22
2023-05-14T09:08:15.137Z,23.01
2023-05-14T09:09:15.032Z,22.17
2023-05-14T09:10:13.891Z,21.86
2023-05-14T09:14:41.652Z,22.05
2023-05-14T09:15:41.395Z,21.96
2023-05-14T09:16:41.454Z,21.98
2023-05-14T09:17:41.410Z,22.64
2023-05-14T09:18:41.446Z,22.25
2023-05-14T09:19:41.433Z,21.93
2023-05-14T09:20:41.344Z,21.94
2023-05-14T09:21:41.338Z,22.16
2023-05-14T09:22:41.341Z,22.64
2023-05-14T09:23:41.338Z,23.34
2023-05-14T09:24:41.370Z,23.44
2023-05-14T09:25:41.349Z,23.27
2023-05-14T09:26:41.354Z,22.58
2023-05-14T09:27:41.325Z,22.34
2023-05-14T09:28:41.264Z,21.93
2023-05-14T09:29:41.280Z,21.88
2023-05-14T09:30:41.388Z,21.79
2023-05-14T09:31:41.424Z,21.11
2023-05-14T09:32:41.435Z,21.41
2023-05-14T09:33:41.519Z,21.68
2023-05-14T09:34:41.282Z,22.41
2023-05-14T09:35:41.317Z,23.04
2023-05-14T09:36:41.300Z,22.96
2023-05-14T09:37:41.297Z,22.82
2023-05-14T09:38:41.235Z,22.59
2023-05-14T09:39:41.211Z,21.60
2023-05-14T09:40:41.251Z,21.14
2023-05-14T09:41:41.234Z,21.08
2023-05-14T09:42:41.267Z,21.33
2023-05-14T09:43:41.248Z,21.08
2023-05-14T09:44:41.170Z,21.09
2023-05-14T09:45:41.191Z,21.12
2023-05-14T09:46:41.230Z,21.15
2023-05-14T09:47:41.241Z,20.64
2023-05-14T09:48:41.269Z,20.24
2023-05-14T09:49:41.226Z,20.39
2023-05-14T09:50:41.136Z,20.39
2023-05-14T09:51:41.118Z,20.18
2023-05-14T09:52:41.128Z,19.77
2023-05-14T09:53:42.113Z,19.43
2023-05-14T09:54:41.110Z,19.49
2023-05-14T09:55:41.153Z,19.48
2023-05-14T09:56:41.177Z,19.44
2023-05-14T09:57:41.148Z,19.38
2023-05-14T09:58:41.122Z,19.08
2023-05-14T09:59:41.154Z,19.00
2023-05-14T10:00:41.656Z,18.96
2023-05-14T10:01:41.362Z,18.87
2023-05-14T10:02:41.570Z,18.89
2023-05-14T10:03:41.306Z,18.43
2023-05-14T10:04:41.381Z,18.45
2023-05-14T10:05:41.473Z,18.48
2023-05-14T10:06:41.456Z,18.22
2023-05-14T10:07:41.532Z,18.02
2023-05-14T10:08:41.498Z,18.05
2023-05-14T10:09:41.526Z,18.02
2023-05-14T10:10:41.590Z,18.19
2023-05-14T10:11:41.632Z,18.20
2023-05-14T10:12:41.627Z,18.47
2023-05-14T10:13:41.695Z,18.68
2023-05-14T10:14:41.703Z,18.57
2023-05-14T10:15:41.794Z,18.05
2023-05-14T10:16:41.813Z,17.62
2023-05-14T10:17:41.836Z,17.64
2023-05-14T10:18:41.873Z,17.77
2023-05-14T10:19:41.832Z,17.85
2023-05-14T10:20:41.908Z,17.96
2023-05-14T10:21:41.850Z,18.18
2023-05-14T10:22:41.916Z,17.82
2023-05-14T10:23:41.880Z,17.88
2023-05-14T10:24:41.919Z,17.93
2023-05-14T10:25:41.961Z,18.19
2023-05-14T10:26:41.989Z,18.42
2023-05-14T10:27:41.958Z,18.57
2023-05-14T10:28:41.972Z,18.69
2023-05-14T10:29:42.077Z,18.46
2023-05-14T10:30:42.108Z,18.56
2023-05-14T10:31:42.227Z,18.71
2023-05-14T10:32:42.321Z,18.90
2023-05-14T10:33:42.193Z,18.33
2023-05-14T10:34:42.257Z,17.77
2023-05-14T10:35:42.259Z,17.68
2023-05-14T10:36:42.318Z,17.67
2023-05-14T10:37:42.319Z,17.88
2023-05-14T10:38:42.376Z,18.11
2023-05-14T10:39:42.419Z,18.30
2023-05-14T10:40:42.372Z,18.42
2023-05-14T10:41:42.432Z,18.51
2023-05-14T10:42:42.414Z,18.08
2023-05-14T10:43:42.478Z,17.90
2023-05-14T10:44:42.474Z,17.89
2023-05-14T10:45:42.487Z,17.90
2023-05-14T10:46:42.566Z,18.01
2023-05-14T10:47:42.553Z,18.02
2023-05-14T10:48:42.503Z,17.83
2023-05-14T10:49:43.869Z,17.90
2023-05-14T10:50:42.537Z,18.07
2023-05-14T10:51:42.591Z,18.19
2023-05-14T10:52:42.568Z,18.15
2023-05-14T10:53:42.656Z,17.93
2023-05-14T10:54:42.594Z,17.82
2023-05-14T10:55:42.662Z,17.72
2023-05-14T10:56:42.662Z,17.59
2023-05-14T10:57:42.687Z,17.57
2023-05-14T10:58:42.715Z,17.63
2023-05-14T10:59:42.780Z,17.69
2023-05-14T11:00:42.826Z,17.50
2023-05-14T11:01:42.852Z,17.53
2023-05-14T11:02:42.894Z,17.67
2023-05-14T11:03:43.007Z,17.75
2023-05-14T11:04:42.867Z,17.77
2023-05-14T11:05:42.935Z,17.85
2023-05-14T11:06:42.994Z,17.87
2023-05-14T11:07:43.063Z,17.71
2023-05-14T11:08:43.615Z,17.55
2023-05-14T11:09:43.153Z,17.39
2023-05-14T11:10:43.106Z,17.22
2023-05-14T11:11:43.172Z,17.27
2023-05-14T11:12:43.235Z,17.16
2023-05-14T11:13:43.231Z,17.20
2023-05-14T11:14:43.243Z,17.46
2023-05-14T11:15:43.338Z,17.53
2023-05-14T11:16:43.375Z,17.70
2023-05-14T11:17:43.461Z,17.81
2023-05-14T11:18:43.383Z,17.92
2023-05-14T11:19:43.388Z,17.94
2023-05-14T11:20:43.447Z,17.77
2023-05-14T11:21:43.445Z,17.92
2023-05-14T11:26:25.868Z,17.78
2023-05-14T11:27:25.699Z,18.16
2023-05-14T11:32:09.846Z,18.49
2023-05-14T11:34:30.306Z,18.24
2023-05-14T11:35:30.127Z,18.40
2023-05-14T11:37:49.461Z,18.15
2023-05-14T11:38:49.471Z,18.24
2023-05-14T11:39:50.463Z,18.45
2023-05-14T11:40:49.652Z,18.75
2023-05-14T11:41:49.507Z,18.94
2023-05-14T11:42:49.477Z,19.17
2023-05-14T11:43:49.483Z,19.00
2023-05-14T11:44:49.481Z,18.92
2023-05-14T11:45:49.618Z,18.80
2023-05-14T11:50:37.665Z,18.18
2023-05-14T11:54:16.463Z,18.68
2023-05-14T11:55:16.385Z,18.73
2023-05-14T11:56:16.451Z,18.65
2023-05-14T11:57:16.814Z,18.49
2023-05-14T11:58:16.416Z,18.57
2023-05-14T12:00:36.370Z,18.36
2023-05-14T12:01:35.672Z,18.41
2023-05-14T12:02:35.761Z,17.99
2023-05-14T12:03:35.963Z,17.94
2023-05-14T12:04:35.724Z,18.05
2023-05-14T12:05:35.648Z,18.18
2023-05-14T12:06:35.671Z,18.27
2023-05-14T12:07:35.614Z,18.19
2023-05-14T12:08:35.666Z,18.17
2023-05-14T12:09:35.889Z,18.20
2023-05-14T12:10:36.351Z,18.20
2023-05-14T12:11:35.586Z,18.17
2023-05-14T12:12:35.660Z,18.17
2023-05-14T12:13:35.555Z,18.17
2023-05-14T12:14:35.553Z,18.16
2023-05-14T12:15:35.906Z,18.13
2023-05-14T12:16:38.360Z,18.12
2023-05-14T12:17:35.555Z,18.09
2023-05-14T12:18:35.693Z,18.10
2023-05-14T12:19:35.575Z,18.10
2023-05-14T12:20:35.534Z,17.98
2023-05-14T12:21:35.494Z,17.97
2023-05-14T12:22:36.950Z,17.98
2023-05-14T12:23:35.511Z,17.97
2023-05-14T12:24:35.503Z,17.90
2023-05-14T12:25:35.530Z,17.77
2023-05-14T12:26:35.509Z,17.80
2023-05-14T12:27:35.483Z,17.75
2023-05-14T12:28:38.057Z,17.73
2023-05-14T12:29:35.517Z,17.74
2023-05-14T12:30:35.528Z,17.74
2023-05-14T12:31:36.435Z,17.73
2023-05-14T12:32:35.495Z,17.74
2023-05-14T12:33:35.466Z,17.74
2023-05-14T12:34:37.361Z,17.74
2023-05-14T12:35:35.472Z,17.77
2023-05-14T12:37:55.624Z,17.69
2023-05-14T12:38:56.220Z,17.76
2023-05-14T12:39:55.211Z,17.75
2023-05-14T12:40:55.217Z,17.80
2023-05-14T12:41:55.214Z,17.85
2023-05-14T12:42:56.774Z,17.88
2023-05-14T12:43:55.383Z,17.89
2023-05-14T12:44:55.268Z,17.93
2023-05-14T12:49:01.551Z,17.38
2023-05-14T12:50:02.228Z,17.66
2023-05-14T12:51:01.217Z,17.74
2023-05-14T12:52:17.301Z,17.78
2023-05-14T12:53:02.200Z,17.79
2023-05-14T13:00:04.269Z,17.28
2023-05-14T13:01:04.257Z,17.34
2023-05-14T13:02:04.249Z,17.39
2023-05-14T13:03:04.200Z,17.49
2023-05-14T13:04:04.210Z,17.54
2023-05-14T13:05:04.187Z,17.56
2023-05-14T13:07:56.481Z,17.28
2023-05-14T13:08:56.045Z,17.51
2023-05-14T13:09:56.014Z,17.55
2023-05-14T13:10:56.086Z,17.53
2023-05-14T13:11:55.988Z,17.46
2023-05-14T13:12:56.715Z,17.31
2023-05-14T13:13:56.092Z,17.33
2023-05-14T13:14:56.425Z,17.30
2023-05-14T13:15:56.126Z,17.38
2023-05-14T13:16:56.049Z,17.42
2023-05-14T13:17:56.023Z,17.46
2023-05-14T13:18:55.970Z,17.49
2023-05-14T13:19:55.955Z,17.50
2023-05-14T13:20:55.946Z,17.50
2023-05-14T13:21:55.975Z,17.49
2023-05-14T13:22:55.941Z,17.44
2023-05-14T13:23:55.923Z,17.33
2023-05-14T13:24:55.951Z,17.24
2023-05-14T13:25:55.972Z,17.19
2023-05-14T13:31:19.512Z,16.78
2023-05-14T13:32:19.379Z,16.84
2023-05-14T13:33:19.476Z,16.84
2023-05-14T13:34:20.250Z,16.84
2023-05-14T13:35:19.358Z,16.79
2023-05-14T13:36:19.370Z,16.75
2023-05-14T13:37:19.407Z,16.77
2023-05-14T13:38:19.398Z,16.84
2023-05-14T13:39:19.390Z,16.96
2023-05-14T13:40:19.321Z,17.00
2023-05-14T13:41:19.309Z,17.00
2023-05-14T13:42:19.450Z,17.01
2023-05-14T13:43:19.639Z,17.05
2023-05-14T13:44:19.335Z,17.12
2023-05-14T13:45:19.318Z,17.21
2023-05-14T13:46:19.293Z,17.29
2023-05-14T13:47:19.338Z,17.36
2023-05-14T13:48:19.341Z,17.41
2023-05-14T13:49:19.283Z,17.48
2023-05-14T13:50:19.298Z,17.54
2023-05-14T13:51:19.298Z,17.54
2023-05-14T13:52:19.379Z,17.48
2023-05-14T13:53:19.384Z,17.51
2023-05-14T13:54:19.403Z,17.60
2023-05-14T13:55:19.502Z,17.69
2023-05-14T13:56:19.496Z,17.71
2023-05-14T13:57:19.568Z,17.69
2023-05-14T13:58:19.557Z,17.49
2023-05-14T13:59:19.612Z,17.37
2023-05-14T14:00:19.676Z,17.27
2023-05-14T14:01:19.695Z,17.24
2023-05-14T14:02:19.656Z,17.28
2023-05-14T14:03:19.722Z,17.29
2023-05-14T14:04:19.697Z,17.32
2023-05-14T14:05:19.824Z,17.35
2023-05-14T14:06:19.784Z,17.33
2023-05-14T14:07:19.918Z,17.30
2023-05-14T14:08:24.139Z,17.38
2023-05-14T14:09:19.896Z,17.31
2023-05-14T14:10:19.903Z,17.31
2023-05-14T14:11:19.863Z,17.36
2023-05-14T14:12:20.007Z,17.38
2023-05-14T14:16:48.046Z,17.34
2023-05-14T14:19:07.726Z,17.57
2023-05-14T14:20:07.476Z,17.64
2023-05-14T14:21:07.502Z,17.73
2023-05-14T14:22:07.432Z,17.72
2023-05-14T14:23:07.701Z,17.75
2023-05-14T14:29:14.561Z,17.52
2023-05-14T14:35:13.162Z,17.29
2023-05-14T14:36:13.121Z,17.37
2023-05-14T14:37:13.303Z,17.35
2023-05-14T14:38:13.129Z,17.24
2023-05-14T14:39:13.029Z,17.09
2023-05-14T14:40:13.069Z,16.93
2023-05-14T14:41:13.063Z,16.84
2023-05-14T14:42:13.056Z,16.84
2023-05-14T14:43:13.044Z,16.89
2023-05-14T14:44:13.279Z,16.97
2023-05-14T14:45:13.072Z,16.97
2023-05-14T14:46:13.023Z,16.87
2023-05-14T14:47:12.974Z,16.87
2023-05-14T14:48:13.098Z,16.85
2023-05-14T14:49:13.030Z,16.81
2023-05-14T14:50:13.028Z,16.82
2023-05-14T14:51:12.964Z,16.92
2023-05-14T14:52:12.940Z,16.90
2023-05-14T14:53:13.256Z,16.89
2023-05-14T14:54:12.957Z,16.85
2023-05-14T14:55:12.984Z,16.86
2023-05-14T14:56:12.968Z,16.90
2023-05-14T14:57:12.949Z,16.94
2023-05-14T14:58:12.981Z,16.94
2023-05-14T14:59:12.963Z,16.88
2023-05-14T15:00:12.901Z,16.84
2023-05-14T15:01:13.119Z,16.78
2023-05-14T15:02:12.948Z,16.72
2023-05-14T15:03:13.046Z,16.71
2023-05-14T15:04:12.902Z,16.73
2023-05-14T15:05:12.908Z,16.73
2023-05-14T15:06:13.017Z,16.39
2023-05-14T15:07:12.899Z,16.17
2023-05-14T15:08:12.901Z,15.99
2023-05-14T15:09:12.852Z,15.71
2023-05-14T15:10:12.879Z,15.53
2023-05-14T15:11:12.885Z,15.45
2023-05-14T15:12:12.845Z,15.33
2023-05-14T15:13:12.861Z,15.27
2023-05-14T15:14:12.803Z,15.04
2023-05-14T15:15:13.315Z,15.08
2023-05-14T15:16:12.880Z,15.20
2023-05-14T15:17:12.854Z,15.39
2023-05-14T15:18:12.947Z,15.49
2023-05-14T15:19:12.836Z,15.33
2023-05-14T15:20:12.815Z,15.19
2023-05-14T15:21:12.819Z,15.30
2023-05-14T15:22:12.763Z,15.34
2023-05-14T15:23:12.858Z,15.24
2023-05-14T15:24:12.998Z,15.26
2023-05-14T15:25:12.888Z,15.29
2023-05-14T15:26:12.900Z,15.23
2023-05-14T15:27:12.961Z,15.02
2023-05-14T15:28:12.959Z,14.97
2023-05-14T15:29:12.982Z,15.06
2023-05-14T15:30:12.975Z,15.13
2023-05-14T15:31:13.168Z,15.19
2023-05-14T15:32:13.151Z,15.14
2023-05-14T15:33:13.188Z,14.90
2023-05-14T15:34:13.162Z,14.61
2023-05-14T15:35:13.173Z,14.62
2023-05-14T15:36:13.237Z,14.66
2023-05-14T15:37:13.269Z,14.73
2023-05-14T15:38:13.460Z,14.65
2023-05-14T15:39:13.408Z,14.67
2023-05-14T15:40:13.455Z,14.64
2023-05-14T15:41:13.474Z,14.74
2023-05-14T15:42:13.714Z,14.90
2023-05-14T15:43:13.586Z,15.04
2023-05-14T15:44:13.683Z,15.35
2023-05-14T15:45:13.711Z,15.28
2023-05-14T15:46:13.767Z,15.18
2023-05-14T15:47:13.800Z,15.23
2023-05-14T15:48:13.875Z,15.26
2023-05-14T15:49:13.876Z,15.12
2023-05-14T15:50:13.878Z,15.08
2023-05-14T15:51:13.939Z,15.09
2023-05-14T15:52:13.945Z,15.17